createdAt,value
2023-03-18T00:00:36.510Z,41.38
2023-03-18T01:44:48.358Z,25.00
2023-03-18T01:48:49.293Z,25.00
2023-03-18T01:52:49.254Z,26.63
2023-03-18T01:56:49.216Z,26.22
2023-03-18T02:00:49.260Z,26.38
2023-03-18T02:04:49.139Z,25.73
2023-03-18T02:08:49.097Z,28.68
2023-03-18T02:12:49.051Z,25.99
2023-03-18T02:16:49.068Z,27.49
2023-03-18T02:20:48.976Z,26.02
2023-03-18T02:24:48.938Z,28.83
2023-03-18T02:28:48.909Z,26.82
2023-03-18T02:32:48.932Z,27.64
2023-03-18T02:36:48.816Z,26.80
2023-03-18T02:40:48.771Z,28.14
2023-03-18T02:44:48.730Z,28.32
2023-03-18T02:48:48.725Z,27.09
2023-03-18T02:52:48.678Z,30.44
2023-03-18T02:56:48.711Z,26.42
2023-03-18T03:00:48.764Z,26.09
2023-03-18T03:04:48.842Z,27.25
2023-03-18T03:08:48.873Z,28.25
2023-03-18T03:12:48.926Z,26.20
2023-03-18T09:08:52.324Z,39.71
2023-03-18T09:12:52.355Z,39.61
2023-03-18T09:16:52.395Z,39.84
2023-03-18T09:24:52.297Z,41.08
2023-03-18T09:28:52.730Z,41.63
2023-03-18T09:32:52.302Z,34.44
2023-03-18T09:36:52.270Z,38.07
2023-03-18T09:40:52.270Z,39.45
2023-03-18T09:44:52.291Z,44.40
2023-03-18T09:48:52.254Z,42.31
2023-03-18T09:52:52.246Z,38.94
2023-03-18T09:56:52.236Z,46.41
2023-03-18T10:00:52.234Z,46.13
2023-03-18T10:04:52.203Z,43.71
2023-03-18T10:08:52.210Z,46.42
2023-03-18T10:12:52.197Z,45.33
2023-03-18T10:16:52.204Z,43.69
2023-03-18T10:20:52.182Z,47.18
2023-03-18T10:24:52.145Z,48.15
2023-03-18T10:28:52.134Z,44.28
2023-03-18T10:32:52.271Z,47.58
2023-03-18T10:36:52.211Z,47.72
2023-03-18T10:40:52.184Z,50.50
2023-03-18T10:44:52.178Z,49.64
2023-03-18T14:12:51.697Z,48.36
2023-03-18T14:20:51.657Z,46.53
2023-03-18T14:24:51.641Z,50.16
2023-03-18T14:28:51.622Z,48.80
2023-03-18T14:32:51.671Z,49.30
2023-03-18T14:36:51.606Z,46.23
2023-03-18T14:40:51.600Z,42.45
2023-03-18T14:44:51.593Z,45.66
2023-03-18T14:48:51.584Z,46.92
2023-03-18T14:52:51.826Z,44.99
2023-03-18T14:56:51.517Z,44.65
2023-03-18T15:00:51.513Z,47.31
2023-03-18T15:04:51.522Z,48.14
2023-03-18T15:08:51.484Z,41.70
2023-03-18T15:12:51.483Z,47.33
2023-03-18T15:16:51.472Z,45.86
2023-03-18T15:20:51.498Z,48.19
2023-03-18T15:24:51.445Z,45.64
2023-03-18T15:28:51.443Z,49.93
2023-03-18T15:32:51.949Z,46.87
2023-03-18T15:36:51.490Z,49.68
2023-03-18T15:40:51.502Z,40.32
2023-03-18T15:44:51.549Z,43.44
2023-03-18T15:48:51.584Z,43.00
2023-03-18T15:52:51.874Z,43.69
2023-03-18T15:56:53.942Z,46.64
2023-03-18T16:00:51.662Z,46.53
2023-03-18T16:04:51.853Z,46.24
2023-03-18T16:08:52.382Z,46.99
2023-03-18T16:12:51.547Z,43.03
2023-03-18T16:16:51.583Z,45.38
2023-03-18T16:20:51.472Z,45.20
2023-03-18T16:24:52.383Z,45.15
2023-03-18T16:28:51.397Z,45.53
2023-03-18T16:32:51.389Z,43.46
2023-03-18T16:36:51.317Z,46.06
2023-03-18T16:40:53.806Z,47.21
2023-03-18T16:44:51.233Z,44.94
2023-03-18T18:36:52.414Z,40.07
2023-03-18T18:40:52.428Z,38.01
2023-03-18T18:44:52.522Z,41.94
2023-03-18T18:48:52.697Z,39.59
2023-03-18T18:52:52.811Z,39.08
2023-03-18T18:56:52.928Z,42.84
2023-03-18T19:00:53.101Z,40.56
2023-03-18T19:04:53.176Z,40.30
2023-03-18T19:08:53.297Z,42.87
2023-03-18T19:12:53.422Z,42.11
2023-03-18T19:16:53.560Z,43.75
2023-03-18T19:20:54.446Z,42.65
2023-03-18T19:24:53.872Z,39.46
2023-03-18T19:29:01.423Z,42.23
2023-03-18T19:32:53.991Z,42.35
2023-03-18T19:36:53.939Z,45.76
2023-03-18T19:40:53.878Z,45.29
2023-03-18T19:48:53.801Z,44.79
2023-03-18T19:52:53.784Z,42.10
2023-03-18T19:56:53.947Z,39.81
2023-03-18T20:00:54.024Z,42.30
2023-03-18T20:08:53.625Z,42.86
2023-03-18T20:12:53.571Z,43.19
2023-03-18T20:16:53.710Z,39.55
2023-03-18T20:20:53.610Z,38.79
2023-03-18T20:24:53.718Z,40.25
2023-03-18T20:28:53.766Z,43.39
2023-03-18T20:32:53.998Z,36.28
2023-03-18T20:36:53.899Z,39.71
2023-03-18T20:40:54.005Z,42.79
2023-03-18T20:44:54.055Z,42.58
2023-03-18T20:48:54.959Z,38.63
2023-03-18T20:52:54.217Z,37.47
2023-03-18T20:56:54.289Z,38.36
2023-03-18T21:00:54.351Z,39.64
2023-03-18T21:04:54.387Z,37.64
2023-03-18T21:08:54.454Z,36.84
2023-03-18T21:12:55.083Z,35.07
2023-03-18T21:16:54.611Z,35.11
2023-03-18T21:20:54.645Z,39.61
2023-03-18T21:24:54.697Z,36.32
2023-03-18T21:28:54.995Z,38.97
2023-03-18T21:32:54.895Z,37.48
2023-03-18T21:36:54.878Z,37.74
2023-03-18T21:40:54.929Z,38.75
2023-03-18T21:44:54.991Z,34.56
2023-03-18T21:48:55.005Z,37.32
2023-03-18T21:52:55.062Z,36.99
2023-03-18T21:56:55.107Z,35.66
2023-03-18T22:00:55.167Z,36.09
2023-03-18T22:04:55.176Z,34.34
2023-03-18T22:08:55.220Z,35.38
2023-03-18T22:12:55.259Z,35.83
2023-03-18T22:16:55.327Z,36.02
2023-03-18T22:20:55.354Z,32.76
2023-03-18T22:24:55.426Z,35.74
2023-03-18T22:28:55.447Z,36.92
2023-03-18T22:32:55.569Z,35.24
2023-03-18T22:36:55.527Z,35.06
2023-03-18T22:40:55.560Z,34.43
2023-03-18T22:44:55.612Z,32.45
2023-03-18T22:48:55.696Z,32.81
2023-03-18T22:52:55.693Z,31.81
2023-03-18T22:56:57.800Z,34.74
2023-03-18T23:00:55.709Z,30.98
2023-03-18T23:04:56.031Z,31.10
2023-03-18T23:08:55.629Z,30.47
2023-03-18T23:12:55.591Z,30.08
2023-03-18T23:16:55.566Z,31.87
2023-03-18T23:20:55.544Z,30.81
2023-03-18T23:24:55.484Z,33.46
2023-03-18T23:28:55.463Z,35.04
2023-03-18T23:32:55.460Z,32.50
2023-03-18T23:36:55.393Z,29.91
2023-03-18T23:40:55.343Z,32.72
2023-03-18T23:44:55.316Z,34.26
2023-03-18T23:48:55.372Z,30.51
2023-03-18T23:52:55.246Z,32.74
2023-03-18T23:56:55.528Z,29.80
